Time;durP1;ratioP1;P1;durP2;ratioP2;P2;SDS_P1;SDS_P2;PMS_P1;PMS_P2;Temp;Humidity;BMP_temperature;BMP_pressure;BME280_temperature;BME280_humidity;BME280_pressure;Samples;Min_cycle;Max_cycle;Signal;HPM_P1;HPM_P2
2021/08/17 00:00:31;;;;;;;11.88;3.08;;;;;;;14.37;71.22;101665.84;5081269;28;20595;-59
2021/08/17 00:02:58;;;;;;;9.82;2.55;;;;;;;14.11;72.29;101660.47;5086435;28;20048;-59
2021/08/17 00:05:25;;;;;;;12.73;2.78;;;;;;;14.29;71.51;101665.78;5092486;28;20116;-57
2021/08/17 00:07:51;;;;;;;13.63;2.50;;;;;;;14.30;71.53;101675.34;5082705;28;20067;-55
2021/08/17 00:10:19;;;;;;;11.80;2.78;;;;;;;14.32;71.96;101664.63;5092737;28;20721;-59
2021/08/17 00:12:45;;;;;;;11.85;2.90;;;;;;;14.29;71.62;101668.41;5085836;28;20052;-60
2021/08/17 00:15:12;;;;;;;13.40;2.80;;;;;;;14.10;72.89;101672.00;5092866;28;20083;-59
2021/08/17 00:17:39;;;;;;;13.18;2.45;;;;;;;14.01;73.24;101665.81;5072607;28;20530;-60
2021/08/17 00:20:07;;;;;;;14.32;2.42;;;;;;;13.97;73.52;101671.53;5096327;28;20130;-58
2021/08/17 00:22:37;;;;;;;15.35;2.95;;;;;;;13.74;74.07;101679.00;5085287;28;20047;-59
2021/08/17 00:25:05;;;;;;;10.38;2.53;;;;;;;13.81;74.39;101675.63;5093548;28;20151;-59
2021/08/17 00:27:31;;;;;;;12.67;2.90;;;;;;;13.74;74.26;101671.94;5083434;28;20138;-59
2021/08/17 00:29:57;;;;;;;11.55;2.70;;;;;;;13.96;73.28;101681.25;5081586;28;20368;-58
2021/08/17 00:32:24;;;;;;;15.70;2.25;;;;;;;13.94;73.51;101679.75;5090512;28;20079;-60
2021/08/17 00:34:51;;;;;;;18.70;2.53;;;;;;;13.84;73.62;101679.81;5088059;28;20143;-60
2021/08/17 00:37:18;;;;;;;13.35;2.53;;;;;;;14.09;72.93;101677.41;5102809;28;20067;-60
2021/08/17 00:39:45;;;;;;;12.75;2.83;;;;;;;13.85;73.32;101677.00;5089907;28;20373;-59
2021/08/17 00:42:12;;;;;;;12.02;2.40;;;;;;;13.65;74.44;101681.53;5084672;28;20131;-59
2021/08/17 00:44:38;;;;;;;11.80;2.83;;;;;;;13.58;75.41;101674.34;5097242;27;20052;-59
2021/08/17 00:47:05;;;;;;;14.60;2.60;;;;;;;13.60;75.22;101675.88;5093059;27;20139;-60
2021/08/17 00:49:31;;;;;;;14.02;3.20;;;;;;;13.88;74.13;101665.34;5099081;28;20075;-54
2021/08/17 00:52:00;;;;;;;11.52;2.72;;;;;;;13.95;73.51;101662.94;5068995;28;20152;-59
2021/08/17 00:54:26;;;;;;;15.77;2.72;;;;;;;14.09;72.78;101665.06;5095966;28;20052;-56
2021/08/17 00:56:55;;;;;;;8.38;2.30;;;;;;;14.15;71.87;101653.94;5080879;28;20499;-60
2021/08/17 00:59:22;;;;;;;;;;;;;;;14.26;71.69;101670.50;5096929;28;20163;-58
2021/08/17 01:01:50;;;;;;;7.78;2.50;;;;;;;14.29;71.67;101664.91;5073492;28;20022;-59
2021/08/17 01:04:16;;;;;;;8.88;2.33;;;;;;;14.03;72.05;101663.88;5098094;28;20123;-59
2021/08/17 01:06:43;;;;;;;9.07;2.10;;;;;;;13.80;72.83;101658.16;5092259;28;20541;-59
2021/08/17 01:09:10;;;;;;;13.88;2.78;;;;;;;13.62;74.31;101658.13;5085032;28;20510;-58
2021/08/17 01:11:42;;;;;;;11.75;3.00;;;;;;;13.51;75.32;101655.66;5090573;28;20563;-60
2021/08/17 01:14:08;;;;;;;12.32;2.28;;;;;;;13.54;75.06;101665.06;5093951;28;20130;-58
2021/08/17 01:16:35;;;;;;;10.48;2.20;;;;;;;13.55;75.02;101659.66;5101710;28;20043;-56
2021/08/17 01:19:01;;;;;;;15.02;3.08;;;;;;;13.70;74.55;101662.66;5093306;28;20489;-58
2021/08/17 01:21:30;;;;;;;12.32;2.47;;;;;;;13.67;74.74;101668.22;5098612;28;20124;-59
2021/08/17 01:23:57;;;;;;;12.38;2.53;;;;;;;13.69;74.46;101668.06;5088539;28;20356;-56
2021/08/17 01:26:24;;;;;;;11.07;2.50;;;;;;;13.96;73.60;101672.53;5088976;27;20185;-55
2021/08/17 01:28:50;;;;;;;15.82;2.60;;;;;;;14.93;69.13;101673.59;5095685;28;20547;-56
2021/08/17 01:31:17;;;;;;;10.05;2.47;;;;;;;15.19;67.59;101673.59;5089290;28;20481;-57
2021/08/17 01:33:43;;;;;;;9.88;2.63;;;;;;;15.32;66.61;101671.34;5097880;28;20040;-60
2021/08/17 01:36:10;;;;;;;9.48;2.42;;;;;;;15.23;67.26;101675.78;5086157;28;20054;-58
2021/08/17 01:38:47;;;;;;;8.55;2.45;;;;;;;15.19;67.73;101678.88;5087306;28;20154;-59
2021/08/17 01:41:13;;;;;;;12.05;3.08;;;;;;;15.22;67.56;101678.56;5088588;28;20133;-59
2021/08/17 01:43:42;;;;;;;9.30;2.58;;;;;;;15.28;67.73;101675.31;5089210;27;20567;-58
2021/08/17 01:46:10;;;;;;;15.23;2.60;;;;;;;15.19;68.11;101676.22;5092298;28;20083;-60
2021/08/17 01:48:37;;;;;;;13.80;3.00;;;;;;;15.12;68.26;101669.94;5088768;28;20089;-59
2021/08/17 01:51:04;;;;;;;16.13;4.68;;;;;;;15.05;68.55;101674.97;5093362;28;20131;-58
2021/08/17 01:53:32;;;;;;;7.05;2.40;;;;;;;15.02;68.96;101677.97;5088820;28;20131;-55
2021/08/17 01:56:06;;;;;;;9.25;2.80;;;;;;;14.97;69.16;101682.84;5089104;28;20134;-57
2021/08/17 01:58:32;;;;;;;10.55;2.75;;;;;;;14.91;69.76;101681.66;5089199;28;20139;-59
2021/08/17 02:00:59;;;;;;;14.30;2.72;;;;;;;14.83;70.93;101685.06;5089717;28;20079;-59
2021/08/17 02:03:25;;;;;;;7.85;2.67;;;;;;;14.72;71.03;101685.34;5097498;28;20788;-60
2021/08/17 02:05:52;;;;;;;12.90;3.08;;;;;;;14.29;73.50;101688.66;5091287;28;20130;-60
2021/08/17 02:08:18;;;;;;;10.75;3.00;;;;;;;14.12;74.68;101696.44;5097044;28;20521;-58
2021/08/17 02:10:45;;;;;;;16.13;3.53;;;;;;;14.30;74.25;101698.25;5087491;28;20127;-58
2021/08/17 02:13:12;;;;;;;11.40;2.80;;;;;;;14.18;74.16;101693.19;5100988;28;20448;-58
2021/08/17 02:15:39;;;;;;;10.45;3.25;;;;;;;14.00;75.84;101697.63;5089465;28;20150;-59
2021/08/17 02:18:05;;;;;;;9.27;3.10;;;;;;;13.85;76.80;101702.53;5093207;28;20050;-58
2021/08/17 02:20:32;;;;;;;14.52;3.55;;;;;;;14.13;76.28;101699.88;5093604;28;20102;-60
2021/08/17 02:22:58;;;;;;;12.30;3.65;;;;;;;14.35;75.00;101691.56;5089322;28;20548;-59
2021/08/17 02:25:25;;;;;;;14.82;3.95;;;;;;;14.16;75.04;101689.06;5091856;27;20048;-58
2021/08/17 02:27:51;;;;;;;10.80;3.42;;;;;;;14.06;76.23;101694.38;5090878;27;20109;-58
2021/08/17 02:30:18;;;;;;;14.75;3.80;;;;;;;13.82;76.87;101693.13;5085420;28;20586;-60
2021/08/17 02:32:44;;;;;;;15.07;3.22;;;;;;;13.64;78.85;101686.94;5082718;28;20086;-58
2021/08/17 02:35:11;;;;;;;21.85;3.83;;;;;;;13.69;78.74;101695.25;5099449;28;20731;-59
2021/08/17 02:37:37;;;;;;;12.20;3.97;;;;;;;13.72;78.94;101691.50;5094893;28;20131;-59
2021/08/17 02:40:05;;;;;;;13.45;4.63;;;;;;;13.69;79.19;101683.91;5092811;27;20135;-57
2021/08/17 02:42:33;;;;;;;10.93;3.20;;;;;;;13.74;77.75;101685.13;5095100;28;20043;-56
2021/08/17 02:45:00;;;;;;;13.63;4.05;;;;;;;14.18;76.61;101677.34;5091204;28;20550;-59
2021/08/17 02:47:27;;;;;;;9.82;4.13;;;;;;;14.30;76.01;101677.16;5089955;28;20427;-60
2021/08/17 02:49:54;;;;;;;13.27;5.05;;;;;;;14.62;73.83;101679.28;5080199;28;20435;-58
2021/08/17 02:52:20;;;;;;;17.27;4.10;;;;;;;14.79;73.08;101689.00;5094279;28;20457;-59
2021/08/17 02:54:49;;;;;;;9.73;4.40;;;;;;;14.88;72.69;101686.41;5096190;28;20131;-60
2021/08/17 02:57:15;;;;;;;;;;;;;;;13.94;76.61;101688.47;5086818;28;20138;-56
2021/08/17 02:59:42;;;;;;;8.27;3.60;;;;;;;13.51;79.21;101687.28;5089066;28;20317;-58
2021/08/17 03:02:08;;;;;;;10.15;4.03;;;;;;;13.37;80.78;101693.03;5079696;28;20055;-58
2021/08/17 03:04:36;;;;;;;13.60;4.30;;;;;;;13.51;80.66;101682.03;5092034;28;20582;-59
2021/08/17 03:07:04;;;;;;;10.98;4.72;;;;;;;13.60;80.83;101681.16;5088631;28;21599;-60
2021/08/17 03:09:31;;;;;;;10.85;5.03;;;;;;;13.85;78.60;101673.53;5092499;28;20070;-59
2021/08/17 03:11:57;;;;;;;11.80;4.00;;;;;;;13.98;78.33;101679.28;5091566;28;20130;-60
2021/08/17 03:14:24;;;;;;;12.40;5.13;;;;;;;13.88;79.07;101681.16;5082539;28;20603;-58
2021/08/17 03:16:50;;;;;;;12.82;4.40;;;;;;;13.85;78.47;101678.81;5095549;28;20071;-60
2021/08/17 03:19:17;;;;;;;9.88;4.10;;;;;;;13.71;79.49;101681.94;5085065;28;20538;-60
2021/08/17 03:21:44;;;;;;;13.05;4.90;;;;;;;13.88;79.10;101675.88;5095108;28;20075;-60
2021/08/17 03:24:10;;;;;;;9.60;4.70;;;;;;;13.80;79.52;101668.72;5086997;28;20484;-59
2021/08/17 03:26:37;;;;;;;11.13;4.60;;;;;;;13.85;79.95;101673.53;5090363;28;20101;-59
2021/08/17 03:29:03;;;;;;;16.08;4.47;;;;;;;13.88;79.30;101673.25;5094883;28;20473;-56
2021/08/17 03:31:30;;;;;;;15.20;4.55;;;;;;;14.02;78.78;101666.66;5088482;28;20090;-58
2021/08/17 03:33:56;;;;;;;13.48;4.80;;;;;;;14.07;77.38;101661.72;5096345;28;20055;-60
2021/08/17 03:36:23;;;;;;;11.40;4.53;;;;;;;14.73;75.53;101662.38;5086879;27;20142;-59
2021/08/17 03:38:49;;;;;;;11.90;4.78;;;;;;;13.73;78.92;101666.81;5089815;28;20507;-57
2021/08/17 03:41:16;;;;;;;9.40;4.45;;;;;;;13.08;83.14;101672.81;5079254;28;20138;-55
2021/08/17 03:43:42;;;;;;;12.13;4.78;;;;;;;12.80;85.45;101663.97;5091966;28;20494;-58
2021/08/17 03:46:09;;;;;;;14.30;5.40;;;;;;;12.66;87.50;101666.09;5088027;28;20130;-60
2021/08/17 03:48:35;;;;;;;13.13;5.93;;;;;;;12.56;88.79;101667.88;5090847;28;20048;-59
2021/08/17 03:51:03;;;;;;;14.77;5.15;;;;;;;12.50;89.12;101665.78;5091783;28;20044;-58
2021/08/17 03:53:30;;;;;;;11.70;4.93;;;;;;;12.43;90.86;101665.53;5067802;28;20474;-60
2021/08/17 03:55:56;;;;;;;10.80;5.45;;;;;;;12.44;91.64;101666.34;5089539;28;20367;-60
2021/08/17 03:58:22;;;;;;;14.65;5.30;;;;;;;12.48;90.67;101665.09;5080112;28;20519;-60
2021/08/17 04:00:50;;;;;;;17.20;5.47;;;;;;;12.49;92.02;101673.84;5094840;28;20082;-60
2021/08/17 04:03:16;;;;;;;12.98;4.93;;;;;;;12.50;91.68;101683.41;5091930;28;20047;-59
2021/08/17 04:05:43;;;;;;;12.27;4.85;;;;;;;12.55;91.80;101684.66;5099562;28;20058;-61
2021/08/17 04:08:11;;;;;;;12.07;5.13;;;;;;;12.60;91.78;101692.13;5102322;28;20047;-60
2021/08/17 04:10:39;;;;;;;12.25;4.90;;;;;;;13.53;89.38;101679.25;5084232;28;20087;-59
2021/08/17 04:13:05;;;;;;;13.52;4.65;;;;;;;12.94;90.59;101689.91;5094835;28;20138;-57
2021/08/17 04:15:32;;;;;;;12.55;5.28;;;;;;;12.79;91.25;101689.47;5084559;28;20747;-59
2021/08/17 04:17:58;;;;;;;13.52;4.78;;;;;;;12.69;94.20;101679.94;5097859;28;20416;-56
2021/08/17 04:20:25;;;;;;;15.05;5.97;;;;;;;12.71;94.58;101680.63;5085070;28;20143;-59
2021/08/17 04:22:51;;;;;;;12.73;4.95;;;;;;;12.71;95.21;101683.25;5094660;28;20562;-60
2021/08/17 04:25:18;;;;;;;15.55;5.35;;;;;;;12.77;95.61;101682.69;5092865;28;20060;-60
2021/08/17 04:27:44;;;;;;;13.88;5.72;;;;;;;12.82;95.35;101683.13;5096098;28;20130;-59
2021/08/17 04:30:12;;;;;;;13.07;5.88;;;;;;;13.02;94.47;101691.81;5097000;28;20087;-59
2021/08/17 04:32:38;;;;;;;12.60;6.07;;;;;;;13.63;92.48;101678.22;5095940;27;20097;-61
2021/08/17 04:35:05;;;;;;;17.05;7.25;;;;;;;13.67;89.14;101675.31;5102019;27;20127;-58
2021/08/17 04:37:32;;;;;;;14.35;6.22;;;;;;;13.32;92.32;101676.81;5092206;28;20130;-60
2021/08/17 04:39:58;;;;;;;15.48;5.90;;;;;;;13.13;94.30;101675.88;5095197;28;20134;-58
2021/08/17 04:42:24;;;;;;;16.17;5.93;;;;;;;13.10;94.32;101667.41;5096345;28;20051;-61
2021/08/17 04:44:51;;;;;;;9.95;5.25;;;;;;;13.14;94.64;101674.06;5105558;28;20526;-61
2021/08/17 04:47:17;;;;;;;15.73;5.97;;;;;;;13.23;94.81;101684.56;5099957;28;20138;-61
2021/08/17 04:49:44;;;;;;;13.70;6.00;;;;;;;13.46;93.21;101676.34;5095564;28;20154;-60
2021/08/17 04:52:10;;;;;;;18.52;6.78;;;;;;;13.30;94.17;101689.31;5090551;28;20144;-58
2021/08/17 04:54:38;;;;;;;13.68;6.57;;;;;;;13.60;94.49;101698.75;5080705;28;20426;-59
2021/08/17 04:57:05;;;;;;;14.15;6.00;;;;;;;13.62;92.22;101702.94;5099270;28;20126;-60
2021/08/17 04:59:32;;;;;;;13.75;7.00;;;;;;;14.02;88.61;101693.03;5092549;28;20039;-59
2021/08/17 05:01:58;;;;;;;17.90;6.20;;;;;;;13.65;91.00;101697.34;5096496;28;20162;-60
2021/08/17 05:04:25;;;;;;;11.68;6.07;;;;;;;13.59;92.55;101694.47;5091681;28;20044;-58
2021/08/17 05:06:51;;;;;;;18.48;7.00;;;;;;;13.81;93.27;101677.44;5089700;28;20787;-60
2021/08/17 05:09:18;;;;;;;14.82;6.78;;;;;;;13.87;90.86;101697.13;5094486;28;20056;-60
2021/08/17 05:11:44;;;;;;;15.43;7.40;;;;;;;13.63;93.41;101709.84;5090268;28;20522;-61
2021/08/17 05:14:11;;;;;;;18.40;7.75;;;;;;;14.56;88.65;101711.53;5102514;28;20130;-58
2021/08/17 05:16:37;;;;;;;21.08;8.43;;;;;;;13.89;91.84;101708.34;5080549;28;20143;-59
2021/08/17 05:19:04;;;;;;;19.77;8.60;;;;;;;14.26;92.78;101712.75;5074617;28;20083;-59
2021/08/17 05:21:30;;;;;;;18.85;8.20;;;;;;;14.49;88.52;101719.25;5082007;28;20128;-60
2021/08/17 05:23:57;;;;;;;18.40;8.85;;;;;;;14.67;87.59;101706.06;5084474;28;20571;-61
2021/08/17 05:26:24;;;;;;;19.65;9.30;;;;;;;14.37;89.86;101712.53;5081929;28;20135;-61
2021/08/17 05:28:50;;;;;;;23.10;10.40;;;;;;;14.29;90.76;101715.91;5083336;28;20134;-60
2021/08/17 05:31:17;;;;;;;26.13;10.75;;;;;;;14.10;93.94;101716.03;5087555;28;20798;-61
2021/08/17 05:33:43;;;;;;;27.50;10.93;;;;;;;14.33;93.01;101725.19;5083385;28;20079;-60
2021/08/17 05:36:10;;;;;;;32.05;12.50;;;;;;;14.38;93.02;101727.38;5095520;28;20137;-61
2021/08/17 05:38:36;;;;;;;34.92;12.82;;;;;;;15.94;84.90;101718.78;5091293;28;20044;-60
2021/08/17 05:41:03;;;;;;;30.88;13.05;;;;;;;14.66;90.46;101717.59;5087450;28;20139;-57
2021/08/17 05:43:29;;;;;;;31.40;12.73;;;;;;;14.31;94.48;101715.75;5100375;28;20087;-59
2021/08/17 05:46:04;;;;;;;28.98;12.63;;;;;;;14.15;97.11;101709.34;5087422;28;20047;-55
2021/08/17 05:48:34;;;;;;;34.20;14.20;;;;;;;14.07;98.79;101713.69;5076896;28;20044;-56
2021/08/17 05:51:01;;;;;;;29.65;13.88;;;;;;;14.09;99.22;101717.00;5088391;28;20158;-60
2021/08/17 05:53:27;;;;;;;35.83;14.90;;;;;;;14.10;100.00;101716.03;5085944;28;20055;-60
2021/08/17 05:55:53;;;;;;;33.42;13.95;;;;;;;14.15;100.00;101711.13;5092175;28;20546;-60
2021/08/17 05:58:20;;;;;;;40.95;16.00;;;;;;;14.19;100.00;101694.88;5072764;28;20481;-61
2021/08/17 06:00:46;;;;;;;37.67;15.75;;;;;;;14.20;100.00;101703.59;5088525;28;20087;-59
2021/08/17 06:03:13;;;;;;;38.90;16.80;;;;;;;14.21;100.00;101695.53;5086246;28;20048;-61
2021/08/17 06:05:40;;;;;;;41.85;15.85;;;;;;;14.22;100.00;101691.09;5092798;28;20058;-59
2021/08/17 06:08:06;;;;;;;43.47;16.45;;;;;;;14.19;100.00;101681.69;5089668;28;20079;-60
2021/08/17 06:10:32;;;;;;;41.50;17.80;;;;;;;14.28;100.00;101689.66;5089185;28;20483;-61
2021/08/17 06:12:59;;;;;;;41.60;16.50;;;;;;;14.53;100.00;101698.66;5088745;28;20131;-61
2021/08/17 06:15:26;;;;;;;39.75;16.60;;;;;;;14.47;100.00;101701.91;5089757;28;20075;-60
2021/08/17 06:17:52;;;;;;;43.35;17.17;;;;;;;14.48;100.00;101712.28;5097134;28;20806;-60
2021/08/17 06:20:19;;;;;;;45.03;18.40;;;;;;;14.57;100.00;101721.16;5085355;28;20422;-60
2021/08/17 06:22:46;;;;;;;42.00;17.30;;;;;;;14.86;100.00;101728.00;5072736;28;20130;-60
2021/08/17 06:25:12;;;;;;;47.13;16.83;;;;;;;14.82;100.00;101725.69;5081793;28;20147;-60
2021/08/17 06:27:39;;;;;;;45.42;17.15;;;;;;;15.01;100.00;101715.91;5097970;27;20158;-59
2021/08/17 06:30:06;;;;;;;47.60;18.48;;;;;;;15.03;99.23;101716.59;5086843;28;20139;-59
2021/08/17 06:32:50;;;;;;;45.58;17.63;;;;;;;15.03;99.32;101712.16;5088476;28;20054;-59
2021/08/17 06:35:17;;;;;;;55.42;18.98;;;;;;;15.53;96.07;101710.63;5095377;28;20047;-58
2021/08/17 06:37:44;;;;;;;48.40;18.73;;;;;;;15.29;97.35;101694.63;5091975;28;20082;-57
2021/08/17 06:40:11;;;;;;;51.17;18.42;;;;;;;16.02;93.98;101707.41;5089183;28;20044;-60
2021/08/17 06:42:37;;;;;;;47.17;19.60;;;;;;;15.61;94.17;101699.28;5081727;28;20047;-61
2021/08/17 06:45:05;;;;;;;50.25;18.58;;;;;;;15.92;92.47;101690.84;5074243;28;20464;-58
2021/08/17 06:47:31;;;;;;;50.65;19.30;;;;;;;15.92;92.04;101691.66;5065002;28;20424;-60
2021/08/17 06:49:58;;;;;;;56.40;20.42;;;;;;;15.77;92.98;101677.38;5090500;28;20047;-60
2021/08/17 06:52:24;;;;;;;50.25;19.25;;;;;;;16.09;91.15;101668.75;5093391;28;20547;-58
2021/08/17 06:54:51;;;;;;;53.10;19.23;;;;;;;16.48;88.73;101670.75;5076808;28;20121;-59
2021/08/17 06:57:17;;;;;;;52.92;19.75;;;;;;;16.36;89.46;101664.13;5102352;28;20138;-60
2021/08/17 06:59:43;;;;;;;51.53;19.88;;;;;;;16.47;88.85;101676.22;5084758;28;20138;-60
2021/08/17 07:02:10;;;;;;;48.72;19.35;;;;;;;16.83;87.60;101663.50;5099930;28;20055;-60
2021/08/17 07:04:36;;;;;;;48.15;18.90;;;;;;;17.23;83.64;101682.16;5085190;28;20043;-60
2021/08/17 07:07:03;;;;;;;55.78;20.42;;;;;;;17.08;83.83;101690.81;5089495;28;20138;-61
2021/08/17 07:09:29;;;;;;;53.03;20.02;;;;;;;16.87;85.96;101687.84;5086491;28;20047;-60
2021/08/17 07:11:56;;;;;;;53.78;21.17;;;;;;;16.50;88.20;101689.94;5095077;28;20153;-59
2021/08/17 07:14:23;;;;;;;53.83;20.08;;;;;;;16.18;91.01;101704.78;5088986;28;20515;-61
2021/08/17 07:16:49;;;;;;;57.33;21.55;;;;;;;16.64;89.28;101708.84;5085518;28;20094;-60
2021/08/17 07:19:16;;;;;;;50.90;19.70;;;;;;;16.47;89.66;101713.31;5090880;28;20052;-58
2021/08/17 07:21:42;;;;;;;52.17;19.15;;;;;;;16.48;89.32;101701.72;5087944;28;20130;-58
2021/08/17 07:24:09;;;;;;;59.42;20.27;;;;;;;16.77;87.45;101702.06;5087135;28;20167;-61
2021/08/17 07:26:35;;;;;;;60.25;20.90;;;;;;;17.02;86.84;101701.25;5091664;27;20274;-61
2021/08/17 07:29:03;;;;;;;56.58;18.85;;;;;;;17.50;83.64;101704.78;5091077;28;20102;-60
2021/08/17 07:31:30;;;;;;;56.07;19.77;;;;;;;17.60;82.52;101700.09;5078480;28;20104;-60
2021/08/17 07:33:57;;;;;;;55.33;19.50;;;;;;;18.07;79.98;101683.38;5089545;28;20052;-60
2021/08/17 07:36:23;;;;;;;51.15;20.27;;;;;;;18.29;78.41;101680.91;5088804;28;20363;-61
2021/08/17 07:38:50;;;;;;;58.00;20.13;;;;;;;17.93;80.26;101698.19;5077976;28;20082;-55
2021/08/17 07:41:17;;;;;;;55.15;19.85;;;;;;;17.67;81.66;101687.81;5073878;28;20562;-60
2021/08/17 07:43:43;;;;;;;51.75;19.25;;;;;;;17.71;81.81;101696.28;5089739;28;20402;-61
2021/08/17 07:46:10;;;;;;;52.08;19.48;;;;;;;17.76;81.81;101702.72;5081466;28;20134;-61
2021/08/17 07:48:41;;;;;;;51.00;19.60;;;;;;;17.65;82.48;101704.91;5091638;28;20473;-61
2021/08/17 07:51:08;;;;;;;53.13;19.08;;;;;;;17.32;84.31;101703.19;5083830;28;20191;-62
2021/08/17 07:53:34;;;;;;;52.65;18.73;;;;;;;17.43;83.72;101702.00;5097976;28;20090;-63
2021/08/17 07:56:01;;;;;;;52.58;18.83;;;;;;;17.87;81.71;101709.50;5085123;28;20052;-62
2021/08/17 07:58:27;;;;;;;47.22;17.27;;;;;;;18.12;80.47;101699.56;5071430;28;20075;-62
2021/08/17 08:00:54;;;;;;;54.50;17.20;;;;;;;18.04;81.10;101701.47;5070556;28;20146;-62
2021/08/17 08:03:21;;;;;;;52.95;19.40;;;;;;;18.02;81.31;101701.63;5095298;28;20060;-62
2021/08/17 08:05:48;;;;;;;52.92;19.13;;;;;;;18.26;81.04;101702.50;5089764;28;20059;-62
2021/08/17 08:08:14;;;;;;;57.70;19.55;;;;;;;18.28;80.34;101706.63;5063368;28;20076;-60
2021/08/17 08:10:41;;;;;;;53.15;19.27;;;;;;;18.35;79.73;101693.47;5094215;28;20483;-62
2021/08/17 08:13:08;;;;;;;52.30;16.95;;;;;;;18.48;78.97;101695.53;5094821;28;20083;-62
2021/08/17 08:15:34;;;;;;;51.80;16.95;;;;;;;18.46;78.78;101695.69;5094982;28;20102;-59
2021/08/17 08:18:02;;;;;;;55.35;17.85;;;;;;;18.54;78.08;101700.97;5075104;28;20056;-62
2021/08/17 08:20:29;;;;;;;49.75;17.75;;;;;;;18.49;78.49;101690.03;5093311;28;20154;-62
2021/08/17 08:22:55;;;;;;;55.05;17.75;;;;;;;18.15;78.67;101690.44;5088079;28;20123;-62
2021/08/17 08:25:22;;;;;;;49.05;16.80;;;;;;;17.79;82.27;101682.97;5096453;28;20044;-62
2021/08/17 08:27:48;;;;;;;47.50;17.77;;;;;;;17.74;81.98;101675.53;5097974;28;20138;-60
2021/08/17 08:30:15;;;;;;;43.00;16.52;;;;;;;17.92;81.12;101672.66;5083570;28;20101;-60
2021/08/17 08:32:43;;;;;;;52.17;18.08;;;;;;;17.88;80.79;101679.31;5089538;28;20106;-59
2021/08/17 08:35:11;;;;;;;46.75;17.85;;;;;;;18.02;79.88;101679.56;5088265;28;20103;-59
2021/08/17 08:37:38;;;;;;;43.25;14.93;;;;;;;17.91;79.53;101686.09;5086255;28;20097;-58
2021/08/17 08:40:07;;;;;;;46.05;16.10;;;;;;;17.93;79.74;101681.44;5085098;28;20138;-61
2021/08/17 08:42:34;;;;;;;44.85;14.20;;;;;;;18.22;78.63;101675.47;5090492;28;20479;-62
2021/08/17 08:45:02;;;;;;;34.65;14.77;;;;;;;18.20;78.66;101680.13;5088988;28;20054;-59
2021/08/17 08:47:29;;;;;;;43.45;15.00;;;;;;;18.15;77.91;101675.34;5084781;28;20422;-60
2021/08/17 08:49:56;;;;;;;36.70;12.38;;;;;;;18.35;77.38;101682.84;5097822;28;20547;-60
2021/08/17 08:52:23;;;;;;;40.92;13.25;;;;;;;18.22;76.58;101687.91;5085262;28;20139;-61
2021/08/17 08:54:49;;;;;;;34.95;13.70;;;;;;;18.11;77.01;101697.94;5095930;28;20074;-60
2021/08/17 08:57:16;;;;;;;32.72;12.50;;;;;;;17.96;78.01;101684.56;5092332;28;20134;-61
2021/08/17 08:59:43;;;;;;;36.53;13.93;;;;;;;18.11;77.61;101689.97;5090207;28;20086;-61
2021/08/17 09:02:12;;;;;;;41.65;15.48;;;;;;;18.27;77.08;101685.53;5093939;28;20054;-60
2021/08/17 09:04:52;;;;;;;39.88;14.57;;;;;;;18.26;77.61;101699.84;5090700;28;20114;-61
2021/08/17 09:07:33;;;;;;;34.72;13.70;;;;;;;18.28;76.51;101695.19;5093384;28;20085;-59
2021/08/17 09:10:03;;;;;;;46.97;16.10;;;;;;;18.21;77.24;101710.16;5091002;28;20406;-61
2021/08/17 09:12:38;;;;;;;39.97;15.23;;;;;;;18.21;77.22;101700.38;5085385;28;20104;-61
2021/08/17 09:15:07;;;;;;;38.40;14.57;;;;;;;18.48;76.25;101701.66;5088114;28;20126;-60
2021/08/17 09:17:34;;;;;;;40.72;15.63;;;;;;;18.45;75.70;101694.06;5103950;27;20170;-60
2021/08/17 09:20:00;;;;;;;39.33;14.73;;;;;;;18.48;74.97;101688.38;5092868;28;20075;-60
2021/08/17 09:22:27;;;;;;;35.70;14.45;;;;;;;18.44;74.73;101692.41;5075989;28;20160;-60
2021/08/17 09:24:57;;;;;;;43.47;14.70;;;;;;;18.58;74.46;101693.44;5092992;28;20044;-61
2021/08/17 09:27:29;;;;;;;46.90;15.25;;;;;;;18.30;74.91;101686.03;5093230;27;20079;-61
2021/08/17 09:30:16;;;;;;;34.50;13.75;;;;;;;18.55;74.72;101685.84;5095629;28;20578;-57
2021/08/17 09:32:56;;;;;;;42.92;13.75;;;;;;;18.59;74.23;101684.50;5082090;28;20058;-60
2021/08/17 09:35:25;;;;;;;38.67;14.50;;;;;;;18.87;73.27;101684.78;5099030;28;20174;-59
2021/08/17 09:38:14;;;;;;;37.75;13.45;;;;;;;18.62;72.86;101681.50;5090076;28;20040;-61
2021/08/17 09:40:41;;;;;;;34.45;12.63;;;;;;;18.79;72.15;101674.19;5086884;28;20351;-61
2021/08/17 09:43:18;;;;;;;35.40;13.70;;;;;;;19.03;70.49;101682.97;5083549;28;20120;-61
2021/08/17 09:45:46;;;;;;;45.60;11.70;;;;;;;19.17;68.69;101659.06;5103157;28;20135;-60
2021/08/17 09:48:14;;;;;;;37.87;13.67;;;;;;;18.99;69.05;101671.88;5090409;28;20058;-61
2021/08/17 09:50:42;;;;;;;;;;;;;;;19.17;68.84;101663.56;5100465;28;20366;-61
2021/08/17 09:53:21;;;;;;;34.15;11.95;;;;;;;19.40;68.14;101652.00;5094153;28;20058;-60
2021/08/17 09:55:50;;;;;;;32.67;12.75;;;;;;;19.47;68.14;101634.28;5091822;28;20124;-59
2021/08/17 09:58:34;;;;;;;27.77;11.70;;;;;;;19.89;65.77;101644.22;5090336;28;20131;-61
2021/08/17 10:01:04;;;;;;;31.48;12.15;;;;;;;20.15;64.39;101640.22;5093916;28;20172;-61
2021/08/17 10:03:33;;;;;;;29.05;11.77;;;;;;;19.95;64.19;101642.66;5096771;28;20657;-60
2021/08/17 10:06:00;;;;;;;26.90;12.50;;;;;;;19.90;64.62;101642.41;5094870;28;20048;-59
2021/08/17 10:08:31;;;;;;;30.75;11.75;;;;;;;20.21;64.14;101643.94;5087734;28;20544;-60
2021/08/17 10:10:59;;;;;;;22.55;10.95;;;;;;;20.57;63.07;101657.19;5063222;28;20106;-60
2021/08/17 10:13:28;;;;;;;28.75;11.23;;;;;;;20.40;63.38;101663.78;5089080;28;20070;-61
2021/08/17 10:15:55;;;;;;;28.02;11.52;;;;;;;20.48;62.68;101663.66;5099737;28;20086;-60
2021/08/17 10:18:34;;;;;;;34.53;12.15;;;;;;;20.64;62.47;101666.09;5093829;28;20135;-60
2021/08/17 10:21:02;;;;;;;24.67;11.25;;;;;;;20.45;62.13;101672.84;5088566;28;20523;-56
2021/08/17 10:23:30;;;;;;;;;;;;;;;20.66;61.75;101658.72;5089537;28;20051;-60
2021/08/17 10:26:02;;;;;;;25.45;11.43;;;;;;;20.41;62.21;101652.13;5086130;28;20071;-59
2021/08/17 10:28:40;;;;;;;25.52;10.88;;;;;;;20.97;61.72;101635.34;5084878;28;20479;-61
2021/08/17 10:31:12;;;;;;;24.95;10.73;;;;;;;20.84;61.83;101649.44;5087464;28;20131;-60
2021/08/17 10:33:43;;;;;;;27.95;11.55;;;;;;;20.89;61.56;101653.13;5083998;28;20249;-61
2021/08/17 10:36:11;;;;;;;26.30;10.48;;;;;;;21.01;61.13;101642.78;5095656;28;20524;-60
2021/08/17 10:38:41;;;;;;;24.45;11.13;;;;;;;20.92;60.91;101644.75;5087637;28;20803;-58
2021/08/17 10:41:09;;;;;;;22.17;9.63;;;;;;;20.67;60.88;101648.88;5069810;28;20150;-58
2021/08/17 10:43:35;;;;;;;30.15;10.93;;;;;;;21.01;60.01;101647.28;5097115;28;20477;-59
2021/08/17 10:46:07;;;;;;;29.70;10.07;;;;;;;21.12;60.32;101636.06;5086191;28;20139;-61
2021/08/17 10:48:46;;;;;;;23.95;10.32;;;;;;;20.93;60.57;101635.75;5094103;28;20483;-60
2021/08/17 10:51:18;;;;;;;24.00;9.82;;;;;;;21.24;60.18;101644.34;5089206;28;20047;-59
2021/08/17 10:53:46;;;;;;;24.55;10.25;;;;;;;20.88;60.41;101656.03;5096953;28;20056;-60
2021/08/17 10:56:19;;;;;;;21.10;9.13;;;;;;;21.02;59.94;101635.59;5088835;28;20051;-60
2021/08/17 10:58:49;;;;;;;21.38;9.25;;;;;;;21.06;60.46;101645.66;5093843;28;20051;-61
2021/08/17 11:01:30;;;;;;;17.67;8.85;;;;;;;19.72;64.98;101653.47;5065444;28;20117;-60
2021/08/17 11:04:02;;;;;;;21.92;8.32;;;;;;;19.00;67.94;101654.91;5097249;28;20043;-60
2021/08/17 11:06:43;;;;;;;21.30;9.20;;;;;;;18.96;68.63;101643.00;5077824;28;20384;-60
2021/08/17 11:09:16;;;;;;;20.23;9.02;;;;;;;18.91;68.17;101650.69;5092981;28;20051;-60
2021/08/17 11:11:46;;;;;;;22.90;9.43;;;;;;;18.81;68.76;101661.56;5095183;28;20094;-60
2021/08/17 11:14:14;;;;;;;22.80;8.25;;;;;;;18.43;68.74;101664.19;5081316;28;20080;-61
2021/08/17 11:16:55;;;;;;;18.98;8.45;;;;;;;17.99;71.38;101656.84;5089306;28;20479;-60